createdAt,value
2019-04-16T00:01:49.862Z,98293.90
2019-04-16T00:04:50.514Z,98294.37
2019-04-16T00:07:40.028Z,98291.53
2019-04-16T00:10:31.569Z,98293.17
2019-04-16T00:13:16.746Z,98283.66
2019-04-16T00:15:46.031Z,98273.89
2019-04-16T00:18:18.437Z,98275.50
2019-04-16T00:21:11.338Z,98270.42
2019-04-16T00:24:18.510Z,98276.42
2019-04-16T00:26:59.930Z,98273.20
2019-04-16T00:29:32.954Z,98267.45
2019-04-16T00:32:07.842Z,98264.44
2019-04-16T00:34:35.637Z,98262.27
2019-04-16T00:37:04.953Z,98261.38
2019-04-16T00:39:34.271Z,98259.46
2019-04-16T00:42:03.694Z,98256.20
2019-04-16T00:44:32.956Z,98261.09
2019-04-16T00:47:02.264Z,98254.23
2019-04-16T00:49:31.542Z,98253.91
2019-04-16T00:52:05.896Z,98262.77
2019-04-16T00:54:33.348Z,98261.25
2019-04-16T00:57:02.711Z,98258.59
2019-04-16T00:59:34.101Z,98254.94
2019-04-16T01:02:05.807Z,98254.87
2019-04-16T01:04:35.138Z,98247.80
2019-04-16T01:07:04.582Z,98253.19
2019-04-16T01:09:33.934Z,98250.45
2019-04-16T01:12:03.226Z,98250.38
2019-04-16T01:14:32.529Z,98250.58
2019-04-16T01:17:04.849Z,98250.75
2019-04-16T01:19:32.858Z,98250.73
2019-04-16T01:22:02.353Z,98246.14
2019-04-16T01:24:34.409Z,98251.06
2019-04-16T01:27:03.809Z,98245.90
2019-04-16T01:29:34.660Z,98254.83
2019-04-16T01:32:21.473Z,98256.59
2019-04-16T01:35:28.184Z,98254.19
2019-04-16T01:38:20.557Z,98252.98
2019-04-16T01:41:04.171Z,98260.33
2019-04-16T01:43:33.485Z,98264.09
2019-04-16T01:46:02.890Z,98265.52
2019-04-16T01:48:32.159Z,98263.22
2019-04-16T01:51:01.446Z,98267.92
2019-04-16T01:53:30.712Z,98267.52
2019-04-16T01:56:00.043Z,98265.17
2019-04-16T01:58:33.642Z,98262.53
2019-04-16T02:01:01.860Z,98263.81
2019-04-16T02:03:31.161Z,98260.46
2019-04-16T02:06:00.439Z,98259.30
2019-04-16T02:08:31.098Z,98261.21
2019-04-16T02:11:00.761Z,98266.32
2019-04-16T02:13:30.067Z,98261.13
2019-04-16T02:15:59.611Z,98263.77
2019-04-16T02:18:29.797Z,98262.17
2019-04-16T02:20:59.933Z,98260.17
2019-04-16T02:23:29.346Z,98265.02
2019-04-16T02:25:58.684Z,98261.05
2019-04-16T02:28:28.952Z,98267.84
2019-04-16T02:31:00.898Z,98264.77
2019-04-16T02:33:30.165Z,98259.56
2019-04-16T02:36:00.897Z,98265.68
2019-04-16T02:38:30.169Z,98273.83
2019-04-16T02:40:59.633Z,98270.52
2019-04-16T02:43:28.906Z,98269.71
2019-04-16T02:45:59.764Z,98264.77
2019-04-16T02:48:29.177Z,98274.08
2019-04-16T02:51:09.435Z,98274.17
2019-04-16T02:54:14.147Z,98273.83
2019-04-16T02:57:01.220Z,98269.47
2019-04-16T02:59:34.051Z,98264.19
2019-04-16T03:02:37.815Z,98264.66
2019-04-16T03:05:12.861Z,98271.13
2019-04-16T03:07:50.903Z,98273.92
2019-04-16T03:10:20.248Z,98274.64
2019-04-16T03:12:52.162Z,98270.61
2019-04-16T03:15:41.393Z,98274.47
2019-04-16T03:18:11.697Z,98271.97
2019-04-16T03:20:42.028Z,98275.30
2019-04-16T03:23:11.331Z,98272.77
2019-04-16T03:25:41.361Z,98275.75
2019-04-16T03:28:12.285Z,98270.13
2019-04-16T03:30:42.887Z,98270.13
2019-04-16T03:33:14.335Z,98274.09
2019-04-16T03:35:44.506Z,98273.77
2019-04-16T03:38:16.341Z,98272.10
2019-04-16T03:40:45.648Z,98276.34
2019-04-16T03:43:16.171Z,98272.52
2019-04-16T03:45:45.472Z,98268.77
2019-04-16T03:48:14.770Z,98265.60
2019-04-16T03:50:44.105Z,98264.60
2019-04-16T03:53:16.367Z,98263.10
2019-04-16T03:55:44.397Z,98256.32
2019-04-16T03:58:13.677Z,98257.85
2019-04-16T04:00:44.182Z,98257.78
2019-04-16T04:03:13.978Z,98253.16
2019-04-16T04:05:45.049Z,98254.19
2019-04-16T04:08:17.383Z,98247.77
2019-04-16T04:10:45.402Z,98254.19
2019-04-16T04:13:18.348Z,98256.59
2019-04-16T04:15:45.744Z,98261.38
2019-04-16T04:18:15.040Z,98259.95
2019-04-16T04:20:44.308Z,98261.86
2019-04-16T04:23:13.605Z,98267.41
2019-04-16T04:25:42.908Z,98266.49
2019-04-16T04:28:12.221Z,98273.80
2019-04-16T04:30:41.480Z,98267.61
2019-04-16T04:33:15.943Z,98274.84
2019-04-16T04:35:45.216Z,98272.33
2019-04-16T04:38:15.746Z,98274.14
2019-04-16T04:40:50.493Z,98284.89
2019-04-16T04:43:16.169Z,98284.48
2019-04-16T04:45:45.635Z,98288.22
2019-04-16T04:48:14.905Z,98286.54
2019-04-16T04:50:44.339Z,98288.30
2019-04-16T04:53:15.621Z,98283.47
2019-04-16T04:55:45.857Z,98289.03
2019-04-16T04:58:17.443Z,98289.59
2019-04-16T05:00:48.705Z,98292.60
2019-04-16T05:03:38.885Z,98293.34
2019-04-16T05:06:10.052Z,98293.84
2019-04-16T05:08:40.445Z,98295.06
2019-04-16T05:11:15.854Z,98294.67
2019-04-16T05:13:45.693Z,98300.58
2019-04-16T05:16:15.920Z,98300.66
2019-04-16T05:18:47.852Z,98304.52
2019-04-16T05:21:19.512Z,98305.12
2019-04-16T05:23:57.049Z,98301.19
2019-04-16T05:26:23.477Z,98309.16
2019-04-16T05:28:53.152Z,98303.76
2019-04-16T05:31:25.601Z,98311.45
2019-04-16T05:33:54.703Z,98304.90
2019-04-16T05:36:24.441Z,98305.91
2019-04-16T05:38:55.734Z,98308.98
2019-04-16T05:41:25.547Z,98314.20
2019-04-16T05:43:55.446Z,98315.09
2019-04-16T05:46:25.194Z,98315.84
2019-04-16T05:48:54.935Z,98318.20
2019-04-16T05:51:24.231Z,98319.28
2019-04-16T05:53:55.831Z,98316.30
2019-04-16T05:56:29.737Z,98315.63
2019-04-16T05:58:59.633Z,98318.83
2019-04-16T06:01:45.518Z,98313.75
2019-04-16T06:04:15.247Z,98314.16
2019-04-16T06:06:45.736Z,98308.42
2019-04-16T06:09:15.025Z,98318.38
2019-04-16T06:11:44.605Z,98315.59
2019-04-16T06:14:49.577Z,98306.80
2019-04-16T06:17:50.349Z,98314.94
2019-04-16T06:20:28.249Z,98316.31
2019-04-16T06:23:12.192Z,98315.95
2019-04-16T06:26:02.731Z,98318.63
2019-04-16T06:28:54.941Z,98311.26
2019-04-16T06:31:42.822Z,98313.77
2019-04-16T06:34:37.090Z,98306.59
2019-04-16T06:37:14.628Z,98310.91
2019-04-16T06:39:54.366Z,98310.59
2019-04-16T06:42:32.796Z,98305.41
2019-04-16T06:45:05.946Z,98301.72
2019-04-16T06:48:03.260Z,98300.88
2019-04-16T06:51:03.774Z,98304.19
2019-04-16T06:53:56.698Z,98300.47
2019-04-16T06:56:52.685Z,98297.95
2019-04-16T06:59:39.795Z,98301.08
2019-04-16T07:02:25.397Z,98296.11
2019-04-16T07:05:19.443Z,98296.98
2019-04-16T07:08:06.552Z,98288.75
2019-04-16T07:10:44.743Z,98298.31
2019-04-16T07:13:11.403Z,98297.95
2019-04-16T07:15:40.870Z,98291.59
2019-04-16T07:18:11.721Z,98284.51
2019-04-16T07:20:42.291Z,98282.84
2019-04-16T07:23:12.030Z,98290.13
2019-04-16T07:25:43.105Z,98283.91
2019-04-16T07:28:34.842Z,98286.95
2019-04-16T07:31:33.415Z,98280.90
2019-04-16T07:34:11.007Z,98281.43
2019-04-16T07:37:00.867Z,98288.67
2019-04-16T07:39:51.111Z,98274.84
2019-04-16T07:42:28.192Z,98291.78
2019-04-16T07:45:22.549Z,98289.64
2019-04-16T07:48:06.197Z,98293.10
2019-04-16T07:50:53.019Z,98290.62
2019-04-16T07:53:48.122Z,98287.05
2019-04-16T07:56:20.572Z,98288.16
2019-04-16T07:58:49.845Z,98283.01
2019-04-16T08:01:19.281Z,98284.55
2019-04-16T08:03:48.616Z,98279.67
2019-04-16T08:06:17.884Z,98272.98
2019-04-16T08:08:47.343Z,98274.98
2019-04-16T08:11:16.640Z,98279.34
2019-04-16T08:13:47.006Z,98278.16
2019-04-16T08:16:17.761Z,98271.82
2019-04-16T08:18:51.042Z,98270.06
2019-04-16T08:21:22.729Z,98280.17
2019-04-16T08:24:00.993Z,98277.69
2019-04-16T08:26:30.290Z,98272.38
2019-04-16T08:28:59.584Z,98271.98
2019-04-16T08:31:29.832Z,98281.92
2019-04-16T08:33:59.128Z,98276.75
2019-04-16T08:36:28.518Z,98277.72
2019-04-16T08:38:57.811Z,98277.48
2019-04-16T08:41:27.138Z,98289.40
2019-04-16T08:43:56.448Z,98290.73
2019-04-16T08:46:28.220Z,98290.45
2019-04-16T08:48:56.760Z,98289.72
2019-04-16T08:51:30.883Z,98290.15
2019-04-16T08:53:57.105Z,98275.75
2019-04-16T08:56:26.404Z,98280.02
2019-04-16T08:59:00.038Z,98285.39
2019-04-16T09:01:30.712Z,98284.09
2019-04-16T09:04:02.685Z,98274.27
2019-04-16T09:06:32.528Z,98274.88
2019-04-16T09:09:15.543Z,98279.73
2019-04-16T09:11:48.475Z,98272.27
2019-04-16T09:14:20.976Z,98271.05
2019-04-16T09:17:11.852Z,98271.48
2019-04-16T09:19:44.107Z,98266.20
2019-04-16T09:22:16.811Z,98259.56
2019-04-16T09:25:14.042Z,98257.78
2019-04-16T09:27:45.775Z,98263.09
2019-04-16T09:30:40.223Z,98253.52
2019-04-16T09:33:19.597Z,98258.12
2019-04-16T09:36:07.868Z,98249.81
2019-04-16T09:38:45.587Z,98240.36
2019-04-16T09:41:25.265Z,98238.08
2019-04-16T09:43:57.892Z,98236.73
2019-04-16T09:46:49.607Z,98235.92
2019-04-16T09:49:04.717Z,98241.67
2019-04-16T09:51:32.139Z,98229.83
2019-04-16T09:54:02.975Z,98243.84
2019-04-16T09:56:32.849Z,98244.22
2019-04-16T09:59:31.068Z,98235.87
2019-04-16T10:02:32.973Z,98241.91
2019-04-16T10:05:02.577Z,98251.17
2019-04-16T10:10:00.409Z,98247.54
2019-04-16T10:12:29.726Z,98251.59
2019-04-16T10:15:00.617Z,98245.68
2019-04-16T10:17:30.364Z,98243.59
2019-04-16T10:19:59.709Z,98231.53
2019-04-16T10:22:29.009Z,98232.48
2019-04-16T10:25:15.488Z,98241.02
2019-04-16T10:27:49.598Z,98238.31
2019-04-16T10:30:24.867Z,98243.89
2019-04-16T10:32:54.213Z,98226.64
2019-04-16T10:35:23.528Z,98227.64
2019-04-16T10:37:52.912Z,98225.77
2019-04-16T10:40:31.978Z,98222.78
2019-04-16T10:43:20.420Z,98207.71
2019-04-16T10:45:58.602Z,98215.97
2019-04-16T10:48:46.825Z,98218.31
2019-04-16T10:51:38.110Z,98211.05
2019-04-16T10:54:36.871Z,98208.34
2019-04-16T10:57:38.308Z,98208.13
2019-04-16T11:00:24.951Z,98205.75
2019-04-16T11:02:59.532Z,98193.86
2019-04-16T11:05:43.301Z,98200.08
2019-04-16T11:08:14.594Z,98209.11
2019-04-16T11:10:46.479Z,98202.66
2019-04-16T11:13:24.300Z,98196.36
2019-04-16T11:15:54.679Z,98190.06
2019-04-16T11:18:23.926Z,98204.89
2019-04-16T11:20:53.244Z,98207.58
2019-04-16T11:23:22.543Z,98203.66
2019-04-16T11:25:51.811Z,98193.98
2019-04-16T11:28:21.193Z,98182.06
2019-04-16T11:30:53.144Z,98179.52
2019-04-16T11:33:22.486Z,98183.28
2019-04-16T11:35:53.154Z,98185.72
2019-04-16T11:38:22.792Z,98181.92
2019-04-16T11:40:52.063Z,98189.59
2019-04-16T11:43:21.351Z,98178.16
2019-04-16T11:45:50.690Z,98173.36
2019-04-16T11:48:19.963Z,98178.85
2019-04-16T11:50:49.233Z,98182.30
2019-04-16T11:53:20.843Z,98183.23
2019-04-16T11:55:50.196Z,98180.20
2019-04-16T11:58:38.444Z,98176.62
2019-04-16T12:01:26.712Z,98185.15
2019-04-16T12:04:03.248Z,98168.99
2019-04-16T12:06:48.641Z,98171.34
2019-04-16T12:09:35.810Z,98176.94
2019-04-16T12:12:15.188Z,98164.20
2019-04-16T12:15:21.741Z,98164.96
2019-04-16T12:18:21.917Z,98172.39
2019-04-16T12:21:05.994Z,98162.69
2019-04-16T12:23:51.377Z,98152.77
2019-04-16T12:26:35.134Z,98153.47
2019-04-16T12:29:14.935Z,98155.11
2019-04-16T12:32:04.321Z,98154.69
2019-04-16T12:35:10.129Z,98152.84
2019-04-16T12:37:58.126Z,98151.94
2019-04-16T12:40:59.626Z,98155.73
2019-04-16T12:43:51.623Z,98150.06
2019-04-16T12:46:37.661Z,98150.27
2019-04-16T12:49:25.940Z,98147.81
2019-04-16T12:52:22.995Z,98144.08
2019-04-16T12:55:31.767Z,98152.11
2019-04-16T12:58:13.283Z,98153.48
2019-04-16T13:01:03.191Z,98148.45
2019-04-16T13:03:46.573Z,98148.58
2019-04-16T13:06:27.013Z,98134.84
2019-04-16T13:09:26.234Z,98134.59
2019-04-16T13:12:32.784Z,98139.09
2019-04-16T13:15:23.965Z,98151.95
2019-04-16T13:18:11.498Z,98134.48
2019-04-16T13:21:05.160Z,98133.66
2019-04-16T13:23:56.165Z,98141.64
2019-04-16T13:26:28.148Z,98141.60
2019-04-16T13:28:57.838Z,98138.51
2019-04-16T13:31:27.120Z,98125.73
2019-04-16T13:33:57.566Z,98130.58
2019-04-16T13:36:28.096Z,98127.16
2019-04-16T13:39:20.849Z,98125.45
2019-04-16T13:41:51.943Z,98117.48
2019-04-16T13:44:22.701Z,98123.38
2019-04-16T13:46:51.978Z,98121.83
2019-04-16T13:49:31.421Z,98113.44
2019-04-16T13:51:58.076Z,98117.48
2019-04-16T13:54:43.211Z,98118.63
2019-04-16T13:57:18.922Z,98119.39
2019-04-16T14:00:07.175Z,98120.38
2019-04-16T14:02:47.921Z,98127.25
2019-04-16T14:05:17.597Z,98117.36
2019-04-16T14:07:46.940Z,98113.48
2019-04-16T14:10:16.502Z,98117.41
2019-04-16T14:12:45.835Z,98107.77
2019-04-16T14:15:31.272Z,98117.03
2019-04-16T14:17:52.932Z,98109.13
2019-04-16T14:20:19.059Z,98109.51
2019-04-16T14:22:53.308Z,98109.75
2019-04-16T14:25:19.583Z,98102.44
2019-04-16T14:27:48.986Z,98111.30
2019-04-16T14:30:23.426Z,98108.60
2019-04-16T14:32:52.860Z,98113.80
2019-04-16T14:35:33.330Z,98111.78
2019-04-16T14:37:58.728Z,98108.27
2019-04-16T14:40:28.883Z,98099.34
2019-04-16T14:42:58.651Z,98110.44
2019-04-16T14:45:57.491Z,98107.91
2019-04-16T14:48:19.596Z,98107.91
2019-04-16T14:50:48.962Z,98111.03
2019-04-16T14:53:31.783Z,98099.78
2019-04-16T14:56:10.674Z,98110.40
2019-04-16T14:59:02.081Z,98112.83
2019-04-16T15:01:37.627Z,98115.44
2019-04-16T15:04:24.906Z,98112.05
2019-04-16T15:07:23.809Z,98112.05
2019-04-16T15:10:15.776Z,98120.17
2019-04-16T15:13:04.047Z,98120.17
2019-04-16T15:16:08.437Z,98121.44
2019-04-16T15:18:33.836Z,98121.44
2019-04-16T15:21:20.716Z,98122.99
2019-04-16T15:24:13.194Z,98121.44
2019-04-16T15:27:08.652Z,98120.18
2019-04-16T15:30:06.256Z,98117.20
2019-04-16T15:33:07.586Z,98127.55
2019-04-16T15:35:43.739Z,98117.95
2019-04-16T15:38:30.398Z,98116.56
2019-04-16T15:41:14.452Z,98128.16
2019-04-16T15:44:03.108Z,98118.60
2019-04-16T15:46:51.772Z,98118.60
2019-04-16T15:49:28.435Z,98116.64
2019-04-16T15:52:09.809Z,98120.17
2019-04-16T15:55:13.927Z,98122.91
2019-04-16T15:58:07.806Z,98119.73
2019-04-16T16:01:04.535Z,98119.73
2019-04-16T16:04:02.481Z,98121.32
2019-04-16T16:06:33.328Z,98119.79
2019-04-16T16:09:08.885Z,98121.96
2019-04-16T16:11:48.044Z,98126.52
2019-04-16T16:14:18.277Z,98135.00
2019-04-16T16:17:06.286Z,98124.94
2019-04-16T16:19:35.899Z,98122.16
2019-04-16T16:22:05.348Z,98123.34
2019-04-16T16:24:41.765Z,98136.23
2019-04-16T16:27:07.562Z,98130.86
2019-04-16T16:29:40.741Z,98138.37
2019-04-16T16:32:10.134Z,98131.84
2019-04-16T16:34:39.900Z,98125.72
2019-04-16T16:37:10.709Z,98127.89
2019-04-16T16:39:40.090Z,98128.92
2019-04-16T16:42:10.910Z,98131.89
2019-04-16T16:44:40.250Z,98139.34
2019-04-16T16:47:31.659Z,98137.81
2019-04-16T16:50:01.184Z,98143.98
2019-04-16T16:52:50.859Z,98144.58
2019-04-16T16:55:32.030Z,98146.97
2019-04-16T16:58:08.983Z,98151.71
2019-04-16T17:01:05.080Z,98145.79
2019-04-16T17:04:13.033Z,98156.44
2019-04-16T17:06:42.458Z,98163.33
2019-04-16T17:09:23.114Z,98159.80
2019-04-16T17:11:55.705Z,98159.23
2019-04-16T17:14:23.569Z,98158.23
2019-04-16T17:16:52.882Z,98164.73
2019-04-16T17:19:22.174Z,98167.86
2019-04-16T17:21:51.674Z,98164.91
2019-04-16T17:24:21.550Z,98168.86
2019-04-16T17:26:51.181Z,98163.53
2019-04-16T17:29:20.562Z,98164.30
2019-04-16T17:31:50.947Z,98167.84
2019-04-16T17:34:20.288Z,98169.63
2019-04-16T17:36:49.668Z,98175.92
2019-04-16T17:39:32.947Z,98178.11
2019-04-16T17:42:05.759Z,98180.03
2019-04-16T17:44:55.125Z,98183.57
2019-04-16T17:47:46.499Z,98189.86
2019-04-16T17:50:26.686Z,98192.05
2019-04-16T17:53:11.723Z,98194.17
2019-04-16T17:55:59.238Z,98196.92
2019-04-16T17:58:36.551Z,98205.99
2019-04-16T18:01:30.983Z,98208.56
2019-04-16T18:04:11.619Z,98214.45
2019-04-16T18:07:03.267Z,98218.28
2019-04-16T18:09:39.563Z,98221.44
2019-04-16T18:12:26.595Z,98226.34
2019-04-16T18:15:19.034Z,98235.54
2019-04-16T18:18:01.872Z,98243.86
2019-04-16T18:21:05.477Z,98241.56
2019-04-16T18:24:00.788Z,98251.91
2019-04-16T18:26:52.618Z,98250.97
2019-04-16T18:29:25.747Z,98246.30
2019-04-16T18:32:04.362Z,98257.09
2019-04-16T18:34:56.901Z,98260.22
2019-04-16T18:37:50.030Z,98262.08
2019-04-16T18:40:28.064Z,98260.28
2019-04-16T18:43:05.365Z,98267.84
2019-04-16T18:45:59.980Z,98267.59
2019-04-16T18:48:32.577Z,98278.56
2019-04-16T18:51:02.076Z,98278.89
2019-04-16T18:53:33.287Z,98280.59
2019-04-16T18:56:02.627Z,98284.02
2019-04-16T18:58:31.925Z,98283.27
2019-04-16T19:01:05.191Z,98289.84
2019-04-16T19:03:34.452Z,98292.13
2019-04-16T19:06:03.975Z,98301.76
2019-04-16T19:08:41.469Z,98309.80
2019-04-16T19:11:05.816Z,98305.38
2019-04-16T19:13:35.157Z,98310.97
2019-04-16T19:16:04.589Z,98309.29
2019-04-16T19:18:34.521Z,98316.05
2019-04-16T19:21:04.416Z,98315.47
2019-04-16T19:23:35.803Z,98323.39
2019-04-16T19:26:08.335Z,98325.78
2019-04-16T19:28:40.425Z,98328.72
2019-04-16T19:31:11.926Z,98333.88
2019-04-16T19:33:43.421Z,98330.64
2019-04-16T19:36:15.102Z,98339.23
2019-04-16T19:38:46.552Z,98336.91
2019-04-16T19:41:23.188Z,98342.30
2019-04-16T19:43:51.294Z,98339.84
2019-04-16T19:46:22.534Z,98336.46
2019-04-16T19:48:57.048Z,98342.38
2019-04-16T19:51:32.160Z,98347.73
2019-04-16T19:54:11.593Z,98352.95
2019-04-16T19:56:43.147Z,98352.43
2019-04-16T19:59:14.587Z,98350.67
2019-04-16T20:01:46.239Z,98352.89
2019-04-16T20:04:17.539Z,98360.27
2019-04-16T20:06:49.272Z,98353.17
2019-04-16T20:09:20.855Z,98357.22
2019-04-16T20:11:55.374Z,98354.97
2019-04-16T20:14:26.171Z,98355.13
2019-04-16T20:16:57.379Z,98359.46
2019-04-16T20:19:28.961Z,98358.30
2019-04-16T20:22:00.334Z,98356.83
2019-04-16T20:24:30.661Z,98356.72
2019-04-16T20:27:04.919Z,98361.80
2019-04-16T20:29:33.207Z,98362.60
2019-04-16T20:32:02.738Z,98369.56
2019-04-16T20:34:32.749Z,98360.53
2019-04-16T20:37:02.470Z,98362.63
2019-04-16T20:39:33.263Z,98365.30
2019-04-16T20:42:03.005Z,98371.67
2019-04-16T20:44:32.666Z,98366.77
2019-04-16T20:47:07.986Z,98360.03
2019-04-16T20:49:37.206Z,98372.95
2019-04-16T20:52:08.395Z,98367.89
2019-04-16T20:54:44.096Z,98365.25
2019-04-16T20:57:13.022Z,98367.05
2019-04-16T20:59:42.700Z,98369.33
2019-04-16T21:02:14.875Z,98376.59
2019-04-16T21:04:44.424Z,98373.33
2019-04-16T21:07:15.334Z,98376.67
2019-04-16T21:09:46.364Z,98379.55
2019-04-16T21:12:17.868Z,98377.52
2019-04-16T21:14:50.858Z,98377.79
2019-04-16T21:17:21.085Z,98373.62
2019-04-16T21:19:50.826Z,98382.03
2019-04-16T21:22:24.885Z,98383.27
2019-04-16T21:24:53.104Z,98383.09
2019-04-16T21:27:24.323Z,98391.98
2019-04-16T21:29:53.679Z,98385.43
2019-04-16T21:32:54.611Z,98392.50
2019-04-16T21:35:32.068Z,98389.59
2019-04-16T21:38:12.791Z,98394.40
2019-04-16T21:40:43.883Z,98399.39
2019-04-16T21:43:13.592Z,98396.98
2019-04-16T21:45:45.570Z,98394.89
2019-04-16T21:48:14.240Z,98394.53
2019-04-16T21:50:44.596Z,98404.92
2019-04-16T21:53:14.686Z,98396.33
2019-04-16T21:55:43.975Z,98403.31
2019-04-16T21:58:17.180Z,98409.02
2019-04-16T22:01:14.836Z,98401.47
2019-04-16T22:03:51.584Z,98403.58
2019-04-16T22:06:21.064Z,98407.59
2019-04-16T22:08:50.384Z,98413.35
2019-04-16T22:11:19.753Z,98413.03
2019-04-16T22:13:50.712Z,98414.31
2019-04-16T22:16:20.651Z,98419.30
2019-04-16T22:18:49.911Z,98424.34
2019-04-16T22:21:19.241Z,98426.53
2019-04-16T22:23:50.424Z,98423.80
2019-04-16T22:26:19.604Z,98424.44
2019-04-16T22:28:49.011Z,98429.81
2019-04-16T22:31:20.796Z,98432.42
2019-04-16T22:33:49.325Z,98429.33
2019-04-16T22:36:18.589Z,98430.47
2019-04-16T22:38:51.121Z,98432.06
2019-04-16T22:41:29.246Z,98438.25
2019-04-16T22:44:20.280Z,98435.07
2019-04-16T22:47:03.985Z,98443.35
2019-04-16T22:49:34.734Z,98441.06
2019-04-16T22:52:04.018Z,98449.27
2019-04-16T22:54:33.351Z,98456.14
2019-04-16T22:57:11.042Z,98457.94
2019-04-16T22:59:40.390Z,98453.84
2019-04-16T23:02:16.761Z,98457.99
2019-04-16T23:04:46.265Z,98462.31
2019-04-16T23:07:15.566Z,98455.24
2019-04-16T23:09:45.719Z,98455.77
2019-04-16T23:12:15.925Z,98462.38
2019-04-16T23:14:45.206Z,98456.45
2019-04-16T23:17:14.530Z,98459.64
2019-04-16T23:19:43.806Z,98457.38
2019-04-16T23:22:15.433Z,98456.23
2019-04-16T23:24:44.768Z,98456.73
2019-04-16T23:27:14.066Z,98463.11
2019-04-16T23:29:47.293Z,98469.27
2019-04-16T23:32:14.373Z,98473.40
2019-04-16T23:34:43.653Z,98469.98
2019-04-16T23:37:12.962Z,98470.69
2019-04-16T23:39:42.303Z,98476.33
2019-04-16T23:42:11.672Z,98475.90
2019-04-16T23:44:54.713Z,98478.42
2019-04-16T23:47:46.610Z,98477.53
2019-04-16T23:50:44.355Z,98479.70
2019-04-16T23:53:09.008Z,98481.48
2019-04-16T23:56:10.027Z,98475.69
2019-04-16T23:58:45.199Z,98475.14
